Time,TemperatureF,DewpointF,PressureIn,WindDirection,WindDirectionDegrees,WindSpeedMPH,WindSpeedGustMPH,Humidity,HourlyPrecipIn,Conditions,Clouds,dailyrainin,SoftwareType,DateUTC
2013-06-06 00:11:00,66.5,61.0,29.86,NE,34,1.0,3.0,83,0.00,,,0.00,weatherlink.com 1.10,2013-06-06 05:11:00,
2013-06-06 00:41:00,65.2,61.0,29.85,West,278,0.0,1.0,87,0.00,,,0.00,weatherlink.com 1.10,2013-06-06 05:41:00,
2013-06-06 00:56:00,65.0,61.0,29.85,NW,304,4.0,4.0,88,0.00,,,0.00,weatherlink.com 1.10,2013-06-06 05:56:00,
2013-06-06 01:11:00,64.8,62.0,29.84,WSW,250,0.0,2.0,89,0.00,,,0.00,weatherlink.com 1.10,2013-06-06 06:11:00,
2013-06-06 01:26:00,64.5,61.0,29.84,NNE,27,0.0,2.0,89,0.00,,,0.00,weatherlink.com 1.10,2013-06-06 06:26:00,
2013-06-06 01:41:00,64.3,61.0,29.84,West,278,1.0,2.0,90,0.00,,,0.00,weatherlink.com 1.10,2013-06-06 06:41:00,
2013-06-06 01:56:00,63.9,61.0,29.83,NW,315,0.0,2.0,90,0.00,,,0.00,weatherlink.com 1.10,2013-06-06 06:56:00,
2013-06-06 02:11:00,63.5,61.0,29.83,SE,143,0.0,2.0,91,0.00,,,0.00,weatherlink.com 1.10,2013-06-06 07:11:00,
2013-06-06 02:26:00,63.1,61.0,29.82,North,4,1.0,2.0,91,0.00,,,0.00,weatherlink.com 1.10,2013-06-06 07:26:00,
2013-06-06 02:42:00,62.7,60.0,29.82,West,277,3.0,6.0,92,0.00,,,0.00,weatherlink.com 1.10,2013-06-06 07:42:00,
2013-06-06 02:57:00,62.4,60.0,29.82,NE,56,0.0,4.0,92,0.00,,,0.00,weatherlink.com 1.10,2013-06-06 07:57:00,
2013-06-06 03:12:00,62.0,60.0,29.82,West,259,0.0,1.0,92,0.00,,,0.00,weatherlink.com 1.10,2013-06-06 08:12:00,
2013-06-06 03:27:00,61.7,60.0,29.82,NE,43,0.0,1.0,93,0.00,,,0.00,weatherlink.com 1.10,2013-06-06 08:27:00,
2013-06-06 04:27:00,61.2,59.0,29.82,West,274,1.0,2.0,93,0.00,,,0.00,weatherlink.com 1.10,2013-06-06 09:27:00,
2013-06-06 04:42:00,61.2,59.0,29.82,ENE,58,1.0,3.0,93,0.00,,,0.00,weatherlink.com 1.10,2013-06-06 09:42:00,
2013-06-06 04:57:00,60.9,59.0,29.82,NE,42,0.0,1.0,93,0.00,,,0.00,weatherlink.com 1.10,2013-06-06 09:57:00,
2013-06-06 05:12:00,60.5,59.0,29.82,ENE,64,0.0,1.0,94,0.00,,,0.00,weatherlink.com 1.10,2013-06-06 10:12:00,
2013-06-06 05:27:00,60.4,59.0,29.83,West,270,0.0,2.0,95,0.00,,,0.00,weatherlink.com 1.10,2013-06-06 10:27:00,
2013-06-06 05:42:00,60.4,59.0,29.83,West,270,0.0,1.0,95,0.00,,,0.00,weatherlink.com 1.10,2013-06-06 10:42:00,
2013-06-06 05:57:00,60.3,59.0,29.83,ENE,61,1.0,2.0,95,0.00,,,0.00,weatherlink.com 1.10,2013-06-06 10:57:00,
2013-06-06 06:12:00,60.4,59.0,29.83,ENE,61,0.0,1.0,94,0.00,,,0.00,weatherlink.com 1.10,2013-06-06 11:12:00,
2013-06-06 06:27:00,60.5,59.0,29.84,ENE,60,0.0,1.0,95,0.00,,,0.00,weatherlink.com 1.10,2013-06-06 11:27:00,
2013-06-06 06:42:00,60.8,59.0,29.84,ENE,60,0.0,1.0,95,0.00,,,0.00,weatherlink.com 1.10,2013-06-06 11:42:00,
2013-06-06 06:57:00,61.1,59.0,29.84,WNW,288,0.0,2.0,94,0.00,,,0.00,weatherlink.com 1.10,2013-06-06 11:57:00,
2013-06-06 07:12:00,61.1,59.0,29.85,North,354,0.0,2.0,94,0.00,,,0.00,weatherlink.com 1.10,2013-06-06 12:12:00,
2013-06-06 07:27:00,61.4,59.0,29.85,WNW,301,0.0,2.0,93,0.00,,,0.00,weatherlink.com 1.10,2013-06-06 12:27:00,
2013-06-06 07:42:00,62.2,60.0,29.84,WSW,250,1.0,4.0,93,0.00,,,0.00,weatherlink.com 1.10,2013-06-06 12:42:00,
2013-06-06 07:57:00,63.3,60.0,29.84,WNW,283,1.0,3.0,90,0.00,,,0.00,weatherlink.com 1.10,2013-06-06 12:57:00,
2013-06-06 08:12:00,63.5,59.0,29.84,SE,132,1.0,4.0,86,0.00,,,0.00,weatherlink.com 1.10,2013-06-06 13:12:00,
2013-06-06 08:27:00,63.8,60.0,29.84,WSW,238,1.0,4.0,86,0.00,,,0.00,weatherlink.com 1.10,2013-06-06 13:27:00,
2013-06-06 08:42:00,64.5,60.0,29.84,ENE,60,2.0,6.0,86,0.00,,,0.00,weatherlink.com 1.10,2013-06-06 13:42:00,
2013-06-06 08:57:00,66.4,61.0,29.84,WNW,291,1.0,5.0,82,0.00,,,0.00,weatherlink.com 1.10,2013-06-06 13:57:00,
2013-06-06 09:12:00,66.3,60.0,29.84,NE,35,1.0,6.0,81,0.00,,,0.00,weatherlink.com 1.10,2013-06-06 14:12:00,
2013-06-06 09:27:00,66.8,60.0,29.84,North,350,1.0,5.0,80,0.00,,,0.00,weatherlink.com 1.10,2013-06-06 14:27:00,
2013-06-06 09:42:00,66.1,60.0,29.84,North,354,3.0,7.0,81,0.00,,,0.00,weatherlink.com 1.10,2013-06-06 14:42:00,
2013-06-06 09:57:00,66.0,60.0,29.84,NNE,32,4.0,6.0,82,0.00,,,0.00,weatherlink.com 1.10,2013-06-06 14:57:00,
2013-06-06 10:12:00,66.2,60.0,29.85,SE,127,1.0,6.0,81,0.00,,,0.00,weatherlink.com 1.10,2013-06-06 15:12:00,
2013-06-06 10:27:00,66.3,61.0,29.85,SE,139,0.0,4.0,83,0.00,,,0.00,weatherlink.com 1.10,2013-06-06 15:27:00,
2013-06-06 10:42:00,67.9,62.0,29.84,ESE,106,1.0,6.0,80,0.00,,,0.00,weatherlink.com 1.10,2013-06-06 15:42:00,
2013-06-06 10:58:00,70.1,62.0,29.84,ESE,115,3.0,5.0,76,0.00,,,0.00,weatherlink.com 1.10,2013-06-06 15:58:00,
2013-06-06 11:13:00,70.1,62.0,29.84,SE,145,0.0,6.0,75,0.00,,,0.00,weatherlink.com 1.10,2013-06-06 16:13:00,
2013-06-06 11:28:00,70.6,61.0,29.84,NNW,331,3.0,6.0,72,0.00,,,0.00,weatherlink.com 1.10,2013-06-06 16:28:00,
2013-06-06 11:43:00,69.8,62.0,29.84,West,280,2.0,6.0,75,0.00,,,0.00,weatherlink.com 1.10,2013-06-06 16:43:00,
2013-06-06 11:58:00,71.2,61.0,29.83,NE,54,7.0,12.0,71,0.00,,,0.00,weatherlink.com 1.10,2013-06-06 16:58:00,
2013-06-06 12:13:00,72.1,62.0,29.83,North,353,3.0,8.0,71,0.00,,,0.00,weatherlink.com 1.10,2013-06-06 17:13:00,
2013-06-06 12:28:00,72.1,61.0,29.83,ENE,57,3.0,8.0,68,0.00,,,0.00,weatherlink.com 1.10,2013-06-06 17:28:00,
2013-06-06 12:43:00,73.2,62.0,29.84,WNW,283,2.0,8.0,68,0.00,,,0.00,weatherlink.com 1.10,2013-06-06 17:43:00,
2013-06-06 12:58:00,73.2,62.0,29.84,ENE,63,4.0,6.0,67,0.00,,,0.00,weatherlink.com 1.10,2013-06-06 17:58:00,
2013-06-06 13:13:00,74.5,61.0,29.84,ENE,63,5.0,6.0,64,0.00,,,0.00,weatherlink.com 1.10,2013-06-06 18:13:00,
2013-06-06 13:28:00,74.4,61.0,29.84,NNW,335,1.0,7.0,64,0.00,,,0.00,weatherlink.com 1.10,2013-06-06 18:28:00,
2013-06-06 13:43:00,75.3,61.0,29.83,WSW,256,2.0,5.0,62,0.00,,,0.00,weatherlink.com 1.10,2013-06-06 18:43:00,
2013-06-06 13:58:00,74.6,62.0,29.83,NNW,347,2.0,5.0,64,0.00,,,0.00,weatherlink.com 1.10,2013-06-06 18:58:00,
2013-06-06 14:13:00,75.0,61.0,29.82,NNE,29,3.0,9.0,62,0.00,,,0.00,weatherlink.com 1.10,2013-06-06 19:13:00,
2013-06-06 14:28:00,76.6,61.0,29.83,ESE,110,1.0,6.0,59,0.00,,,0.00,weatherlink.com 1.10,2013-06-06 19:28:00,
2013-06-06 14:44:00,75.7,61.0,29.83,SW,219,1.0,10.0,61,0.00,,,0.00,weatherlink.com 1.10,2013-06-06 19:44:00,
2013-06-06 14:58:00,76.9,59.0,29.83,NW,315,2.0,6.0,55,0.00,,,0.00,weatherlink.com 1.10,2013-06-06 19:58:00,
2013-06-06 15:13:00,77.5,63.0,29.83,NE,46,5.0,5.0,62,0.00,,,0.00,weatherlink.com 1.10,2013-06-06 20:13:00,
2013-06-06 15:28:00,75.2,61.0,29.84,NE,46,1.0,7.0,61,0.00,,,0.00,weatherlink.com 1.10,2013-06-06 20:28:00,
2013-06-06 15:43:00,75.9,60.0,29.83,NNW,343,1.0,5.0,59,0.00,,,0.00,weatherlink.com 1.10,2013-06-06 20:43:00,
2013-06-06 15:58:00,77.3,61.0,29.83,West,278,1.0,5.0,57,0.00,,,0.00,weatherlink.com 1.10,2013-06-06 20:58:00,
2013-06-06 16:13:00,76.4,60.0,29.82,SW,235,4.0,5.0,57,0.00,,,0.00,weatherlink.com 1.10,2013-06-06 21:13:00,
2013-06-06 16:28:00,75.9,59.0,29.82,WNW,282,1.0,6.0,56,0.00,,,0.00,weatherlink.com 1.10,2013-06-06 21:28:00,
2013-06-06 16:43:00,74.9,59.0,29.82,NNE,23,3.0,5.0,59,0.00,,,0.00,weatherlink.com 1.10,2013-06-06 21:43:00,
2013-06-06 16:58:00,75.3,59.0,29.83,NW,316,3.0,4.0,58,0.00,,,0.00,weatherlink.com 1.10,2013-06-06 21:58:00,
2013-06-06 17:13:00,73.7,59.0,29.82,NE,35,4.0,6.0,61,0.00,,,0.00,weatherlink.com 1.10,2013-06-06 22:13:00,
2013-06-06 17:28:00,74.7,58.0,29.83,SE,138,0.0,5.0,56,0.00,,,0.00,weatherlink.com 1.10,2013-06-06 22:28:00,
2013-06-06 17:43:00,74.9,61.0,29.82,NW,307,2.0,2.0,62,0.00,,,0.00,weatherlink.com 1.10,2013-06-06 22:43:00,
2013-06-06 17:58:00,74.1,59.0,29.82,NE,50,0.0,2.0,60,0.00,,,0.00,weatherlink.com 1.10,2013-06-06 22:58:00,
2013-06-06 18:13:00,73.2,59.0,29.82,NNE,22,2.0,5.0,62,0.00,,,0.00,weatherlink.com 1.10,2013-06-06 23:13:00,
2013-06-06 18:28:00,72.9,60.0,29.82,ENE,75,2.0,3.0,64,0.00,,,0.00,weatherlink.com 1.10,2013-06-06 23:28:00,
2013-06-06 18:43:00,72.6,58.0,29.82,ENE,75,1.0,4.0,61,0.00,,,0.00,weatherlink.com 1.10,2013-06-06 23:43:00,
2013-06-06 18:58:00,71.7,60.0,29.82,NE,48,1.0,4.0,66,0.00,,,0.00,weatherlink.com 1.10,2013-06-06 23:58:00,
2013-06-06 19:13:00,70.5,60.0,29.82,NNE,22,4.0,8.0,70,0.00,,,0.00,weatherlink.com 1.10,2013-06-07 00:13:00,
2013-06-06 19:28:00,69.5,61.0,29.83,NNE,25,0.0,6.0,73,0.00,,,0.00,weatherlink.com 1.10,2013-06-07 00:28:00,
2013-06-06 19:43:00,69.1,61.0,29.83,North,5,0.0,3.0,74,0.00,,,0.00,weatherlink.com 1.10,2013-06-07 00:43:00,
2013-06-06 19:58:00,68.7,61.0,29.83,NE,34,3.0,3.0,75,0.00,,,0.00,weatherlink.com 1.10,2013-06-07 00:58:00,
2013-06-06 20:13:00,68.4,61.0,29.83,North,359,4.0,4.0,76,0.00,,,0.00,weatherlink.com 1.10,2013-06-07 01:13:00,
2013-06-06 20:28:00,68.0,60.0,29.84,North,354,0.0,2.0,76,0.00,,,0.00,weatherlink.com 1.10,2013-06-07 01:28:00,
2013-06-06 20:43:00,67.5,60.0,29.84,North,354,0.0,1.0,78,0.00,,,0.00,weatherlink.com 1.10,2013-06-07 01:43:00,
2013-06-06 20:58:00,67.0,60.0,29.84,North,354,0.0,1.0,78,0.00,,,0.00,weatherlink.com 1.10,2013-06-07 01:58:00,
2013-06-06 21:13:00,66.3,60.0,29.84,North,354,0.0,0.0,80,0.00,,,0.00,weatherlink.com 1.10,2013-06-07 02:13:00,
2013-06-06 21:28:00,65.7,60.0,29.85,North,354,0.0,0.0,81,0.00,,,0.00,weatherlink.com 1.10,2013-06-07 02:28:00,
2013-06-06 21:43:00,65.3,60.0,29.86,North,354,0.0,0.0,82,0.00,,,0.00,weatherlink.com 1.10,2013-06-07 02:43:00,
2013-06-06 21:58:00,65.2,60.0,29.86,North,354,0.0,1.0,83,0.00,,,0.00,weatherlink.com 1.10,2013-06-07 02:58:00,
2013-06-06 22:13:00,64.7,60.0,29.86,NNE,15,0.0,4.0,84,0.00,,,0.00,weatherlink.com 1.10,2013-06-07 03:13:00,
2013-06-06 22:28:00,64.2,59.0,29.87,NE,37,0.0,2.0,84,0.00,,,0.00,weatherlink.com 1.10,2013-06-07 03:28:00,
2013-06-06 22:43:00,63.1,59.0,29.86,NE,37,0.0,1.0,86,0.00,,,0.00,weatherlink.com 1.10,2013-06-07 03:43:00,
2013-06-06 22:58:00,62.5,59.0,29.86,East,94,3.0,3.0,88,0.00,,,0.00,weatherlink.com 1.10,2013-06-07 03:58:00,
2013-06-06 23:13:00,62.3,59.0,29.87,NW,322,0.0,1.0,88,0.00,,,0.00,weatherlink.com 1.10,2013-06-07 04:13:00,
2013-06-06 23:28:00,61.6,59.0,29.86,NE,43,1.0,3.0,90,0.00,,,0.00,weatherlink.com 1.10,2013-06-07 04:28:00,
2013-06-06 23:43:00,61.4,59.0,29.86,NE,45,0.0,4.0,90,0.00,,,0.00,weatherlink.com 1.10,2013-06-07 04:43:00,
2013-06-06 23:58:00,61.1,58.0,29.86,ENE,58,1.0,5.0,90,0.00,,,0.00,weatherlink.com 1.10,2013-06-07 04:58:00,